createdAt,value
2019-02-20T00:01:32.422Z,37.10
2019-02-20T00:04:02.191Z,37.10
2019-02-20T00:06:32.475Z,37.10
2019-02-20T00:09:02.358Z,37.10
2019-02-20T00:11:32.092Z,37.10
2019-02-20T00:14:01.886Z,37.20
2019-02-20T00:16:31.621Z,37.10
2019-02-20T00:19:01.290Z,37.20
2019-02-20T00:21:31.168Z,37.20
2019-02-20T00:24:00.835Z,37.20
2019-02-20T00:26:30.615Z,37.20
2019-02-20T00:29:00.248Z,37.20
2019-02-20T00:31:30.041Z,37.20
2019-02-20T00:33:59.703Z,37.40
2019-02-20T00:36:29.497Z,37.40
2019-02-20T00:38:59.266Z,37.20
2019-02-20T00:41:28.963Z,37.40
2019-02-20T00:44:00.286Z,37.40
2019-02-20T00:46:31.603Z,37.20
2019-02-20T00:49:02.955Z,37.40
2019-02-20T00:51:34.369Z,37.40
2019-02-20T00:54:05.690Z,37.40
2019-02-20T00:56:35.406Z,37.40
2019-02-20T00:59:05.151Z,37.50
2019-02-20T01:01:34.951Z,37.50
2019-02-20T01:04:05.510Z,37.40
2019-02-20T01:06:35.328Z,37.40
2019-02-20T01:09:06.371Z,37.20
2019-02-20T01:11:36.120Z,37.40
2019-02-20T01:14:05.926Z,37.40
2019-02-20T01:16:35.942Z,37.20
2019-02-20T01:19:25.010Z,37.40
2019-02-20T01:21:54.608Z,37.20
2019-02-20T01:24:24.308Z,37.40
2019-02-20T01:26:54.036Z,37.20
2019-02-20T01:29:23.738Z,37.40
2019-02-20T01:31:53.479Z,37.20
2019-02-20T01:34:23.143Z,37.40
2019-02-20T01:36:52.823Z,37.20
2019-02-20T01:39:22.486Z,37.20
2019-02-20T01:41:52.145Z,37.40
2019-02-20T01:44:21.863Z,37.40
2019-02-20T01:46:51.621Z,37.40
2019-02-20T01:49:21.626Z,37.50
2019-02-20T01:51:51.415Z,37.50
2019-02-20T01:54:21.110Z,37.50
2019-02-20T01:56:50.865Z,37.50
2019-02-20T01:59:20.565Z,37.50
2019-02-20T02:01:50.375Z,37.50
2019-02-20T02:04:19.964Z,37.50
2019-02-20T02:06:49.642Z,37.50
2019-02-20T02:09:19.406Z,37.40
2019-02-20T02:11:49.154Z,37.40
2019-02-20T02:14:19.130Z,37.50
2019-02-20T02:16:48.752Z,37.40
2019-02-20T02:19:18.507Z,37.50
2019-02-20T02:21:48.457Z,37.50
2019-02-20T02:24:18.156Z,37.60
2019-02-20T02:26:47.897Z,37.60
2019-02-20T02:29:17.897Z,37.50
2019-02-20T02:31:47.820Z,37.60
2019-02-20T02:34:17.507Z,37.60
2019-02-20T02:36:47.250Z,37.60
2019-02-20T02:39:16.986Z,37.80
2019-02-20T02:41:46.965Z,37.80
2019-02-20T02:44:16.630Z,37.80
2019-02-20T02:46:46.429Z,37.60
2019-02-20T02:49:16.110Z,37.80
2019-02-20T02:51:45.822Z,38.10
2019-02-20T02:54:15.689Z,37.80
2019-02-20T02:56:45.836Z,37.80
2019-02-20T02:59:15.747Z,37.80
2019-02-20T03:01:45.451Z,37.80
2019-02-20T03:04:15.231Z,37.80
2019-02-20T03:06:45.027Z,38.10
2019-02-20T03:09:14.786Z,37.90
2019-02-20T03:11:44.547Z,38.10
2019-02-20T03:14:14.257Z,37.90
2019-02-20T03:16:44.035Z,38.20
2019-02-20T03:19:14.036Z,38.10
2019-02-20T03:21:43.809Z,38.10
2019-02-20T03:24:13.872Z,38.20
2019-02-20T03:26:43.562Z,38.20
2019-02-20T03:29:13.290Z,38.20
2019-02-20T03:31:43.028Z,38.40
2019-02-20T03:34:12.818Z,38.40
2019-02-20T03:36:42.557Z,38.50
2019-02-20T03:39:12.346Z,38.50
2019-02-20T03:41:42.017Z,38.50
2019-02-20T03:44:11.756Z,38.50
2019-02-20T03:46:41.354Z,38.50
2019-02-20T03:49:11.141Z,38.50
2019-02-20T03:51:40.905Z,38.50
2019-02-20T03:54:10.662Z,38.70
2019-02-20T03:56:40.337Z,38.70
2019-02-20T03:59:10.324Z,38.70
2019-02-20T04:01:40.088Z,38.70
2019-02-20T04:04:09.851Z,38.70
2019-02-20T04:06:39.601Z,38.70
2019-02-20T04:09:09.368Z,38.70
2019-02-20T04:11:39.152Z,38.70
2019-02-20T04:14:08.754Z,38.70
2019-02-20T04:16:38.541Z,38.70
2019-02-20T04:19:08.211Z,38.70
2019-02-20T04:21:38.012Z,38.50
2019-02-20T04:24:07.632Z,38.70
2019-02-20T04:26:39.173Z,38.50
2019-02-20T04:29:09.185Z,38.50
2019-02-20T04:31:38.924Z,38.50
2019-02-20T04:34:08.720Z,38.50
2019-02-20T04:36:38.481Z,38.50
2019-02-20T04:39:08.246Z,38.70
2019-02-20T04:41:37.847Z,38.50
2019-02-20T04:44:07.576Z,38.50
2019-02-20T04:46:37.341Z,38.40
2019-02-20T04:49:07.124Z,38.20
2019-02-20T04:51:36.816Z,38.40
2019-02-20T04:54:13.023Z,38.20
2019-02-20T04:56:38.135Z,38.20
2019-02-20T04:59:07.929Z,38.20
2019-02-20T05:01:37.691Z,38.20
2019-02-20T05:04:07.469Z,38.20
2019-02-20T05:06:37.135Z,38.20
2019-02-20T05:09:06.962Z,38.10
2019-02-20T05:11:36.681Z,38.20
2019-02-20T05:14:06.303Z,38.20
2019-02-20T05:16:35.977Z,38.10
2019-02-20T05:19:06.043Z,38.10
2019-02-20T05:21:35.832Z,38.10
2019-02-20T05:24:05.510Z,38.10
2019-02-20T05:26:35.473Z,38.10
2019-02-20T05:29:05.088Z,37.90
2019-02-20T05:31:34.749Z,37.90
2019-02-20T05:34:04.421Z,37.80
2019-02-20T05:36:34.134Z,37.80
2019-02-20T05:39:04.725Z,37.80
2019-02-20T05:41:34.378Z,37.80
2019-02-20T05:44:04.119Z,37.60
2019-02-20T05:46:33.807Z,37.60
2019-02-20T05:49:03.500Z,37.60
2019-02-20T05:51:33.186Z,37.60
2019-02-20T05:54:02.915Z,37.50
2019-02-20T05:56:32.553Z,37.50
2019-02-20T05:59:02.223Z,37.60
2019-02-20T06:01:31.904Z,37.50
2019-02-20T06:04:01.665Z,37.50
2019-02-20T06:06:31.272Z,37.50
2019-02-20T06:09:00.959Z,37.40
2019-02-20T06:11:30.669Z,37.40
2019-02-20T06:14:00.446Z,37.40
2019-02-20T06:16:30.149Z,37.40
2019-02-20T06:18:59.795Z,37.40
2019-02-20T06:21:29.436Z,37.40
2019-02-20T06:23:59.114Z,37.40
2019-02-20T06:26:48.034Z,37.40
2019-02-20T06:29:17.659Z,37.20
2019-02-20T06:31:47.314Z,37.20
2019-02-20T06:34:16.999Z,37.20
2019-02-20T06:36:46.649Z,37.20
2019-02-20T06:39:16.259Z,37.20
2019-02-20T06:41:46.423Z,36.90
2019-02-20T06:44:16.185Z,36.90
2019-02-20T06:46:45.894Z,36.90
2019-02-20T06:49:15.529Z,36.80
2019-02-20T06:51:45.199Z,36.80
2019-02-20T06:54:14.917Z,36.60
2019-02-20T06:56:44.654Z,36.60
2019-02-20T06:59:14.469Z,36.50
2019-02-20T07:01:44.512Z,36.30
2019-02-20T07:04:14.205Z,36.30
2019-02-20T07:06:47.239Z,36.20
2019-02-20T07:09:41.199Z,36.20
2019-02-20T07:12:29.040Z,36.20
2019-02-20T07:15:07.610Z,36.00
2019-02-20T07:17:45.903Z,36.00
2019-02-20T07:20:49.219Z,36.00
2019-02-20T07:23:38.424Z,36.00
2019-02-20T07:26:39.801Z,35.90
2019-02-20T07:29:30.672Z,35.90
2019-02-20T07:32:00.297Z,35.90
2019-02-20T07:34:30.011Z,35.70
2019-02-20T07:36:59.716Z,35.60
2019-02-20T07:39:29.422Z,35.30
2019-02-20T07:41:59.200Z,35.00
2019-02-20T07:44:28.986Z,34.70
2019-02-20T07:46:58.741Z,34.50
2019-02-20T07:49:28.399Z,35.90
2019-02-20T07:51:58.320Z,36.60
2019-02-20T07:54:28.691Z,36.00
2019-02-20T07:56:58.358Z,35.00
2019-02-20T07:59:28.075Z,34.50
2019-02-20T08:01:57.690Z,34.20
2019-02-20T08:04:27.460Z,34.00
2019-02-20T08:06:57.253Z,33.10
2019-02-20T08:09:27.047Z,33.10
2019-02-20T08:11:57.078Z,33.40
2019-02-20T08:14:26.844Z,33.40
2019-02-20T08:16:56.566Z,33.10
2019-02-20T08:19:26.264Z,33.10
2019-02-20T08:21:55.977Z,33.50
2019-02-20T08:24:25.750Z,33.10
2019-02-20T08:26:55.437Z,32.50
2019-02-20T08:29:25.545Z,32.20
2019-02-20T08:31:55.188Z,31.70
2019-02-20T08:34:24.888Z,31.70
2019-02-20T08:36:54.987Z,31.70
2019-02-20T08:39:24.655Z,31.90
2019-02-20T08:41:54.315Z,31.60
2019-02-20T08:44:24.005Z,30.80
2019-02-20T08:46:53.626Z,30.40
2019-02-20T08:49:23.244Z,30.30
2019-02-20T08:51:52.935Z,29.90
2019-02-20T08:54:22.958Z,29.50
2019-02-20T08:56:52.655Z,29.10
2019-02-20T08:59:22.478Z,28.80
2019-02-20T09:01:52.247Z,28.60
2019-02-20T09:04:21.950Z,28.50
2019-02-20T09:06:51.741Z,28.30
2019-02-20T09:09:21.868Z,28.20
2019-02-20T09:11:51.941Z,28.20
2019-02-20T09:14:21.643Z,28.00
2019-02-20T09:16:51.414Z,28.00
2019-02-20T09:19:21.075Z,28.00
2019-02-20T09:21:50.772Z,27.90
2019-02-20T09:24:21.344Z,27.80
2019-02-20T09:26:50.986Z,27.70
2019-02-20T09:29:20.800Z,27.60
2019-02-20T09:31:50.452Z,27.60
2019-02-20T09:34:20.332Z,27.70
2019-02-20T09:36:50.245Z,27.60
2019-02-20T09:39:33.843Z,27.60
2019-02-20T09:42:04.579Z,27.70
2019-02-20T09:44:37.538Z,27.70
2019-02-20T09:47:07.219Z,27.70
2019-02-20T09:49:36.917Z,27.60
2019-02-20T09:52:06.706Z,29.50
2019-02-20T09:54:36.431Z,31.30
2019-02-20T09:57:06.109Z,32.00
2019-02-20T09:59:35.787Z,32.00
2019-02-20T10:02:05.507Z,31.60
2019-02-20T10:04:35.197Z,30.70
2019-02-20T10:07:04.998Z,30.70
2019-02-20T10:09:36.595Z,30.30
2019-02-20T10:12:06.191Z,30.10
2019-02-20T10:14:35.885Z,29.90
2019-02-20T10:17:05.672Z,29.80
2019-02-20T10:19:35.305Z,29.70
2019-02-20T10:22:05.129Z,29.80
2019-02-20T10:24:35.029Z,29.60
2019-02-20T10:27:06.075Z,29.50
2019-02-20T10:29:35.769Z,29.30
2019-02-20T10:32:05.555Z,29.20
2019-02-20T10:34:35.301Z,28.90
2019-02-20T10:37:05.112Z,28.20
2019-02-20T10:39:34.946Z,27.70
2019-02-20T10:42:04.811Z,28.60
2019-02-20T10:44:34.462Z,28.30
2019-02-20T10:47:04.783Z,28.60
2019-02-20T10:49:34.573Z,27.90
2019-02-20T10:52:04.259Z,27.70
2019-02-20T10:54:34.208Z,26.90
2019-02-20T10:57:03.884Z,26.30
2019-02-20T10:59:33.601Z,27.00
2019-02-20T11:02:03.346Z,27.00
2019-02-20T11:04:33.015Z,26.80
2019-02-20T11:07:03.085Z,26.70
2019-02-20T11:09:32.848Z,26.70
2019-02-20T11:12:02.537Z,26.50
2019-02-20T11:14:32.317Z,26.30
2019-02-20T11:17:02.019Z,26.10
2019-02-20T11:19:31.798Z,26.20
2019-02-20T11:22:01.571Z,26.00
2019-02-20T11:24:32.799Z,26.10
2019-02-20T11:27:02.589Z,26.40
2019-02-20T11:29:32.290Z,26.70
2019-02-20T11:32:02.017Z,26.60
2019-02-20T11:34:31.694Z,26.50
2019-02-20T11:37:01.419Z,26.50
2019-02-20T11:39:37.463Z,26.50
2019-02-20T11:42:02.696Z,26.50
2019-02-20T11:44:32.300Z,26.40
2019-02-20T11:47:01.994Z,26.50
2019-02-20T11:49:31.679Z,26.30
2019-02-20T11:52:01.364Z,26.20
2019-02-20T11:54:31.339Z,26.30
2019-02-20T11:57:01.156Z,26.20
2019-02-20T11:59:50.198Z,26.20
2019-02-20T12:02:19.941Z,26.10
2019-02-20T12:04:49.639Z,26.10
2019-02-20T12:07:20.018Z,26.20
2019-02-20T12:09:49.790Z,25.60
2019-02-20T12:12:19.539Z,25.60
2019-02-20T12:14:49.368Z,25.50
2019-02-20T12:17:20.607Z,25.40
2019-02-20T12:19:50.426Z,25.60
2019-02-20T12:22:20.247Z,25.20
2019-02-20T12:24:49.989Z,25.10
2019-02-20T12:27:19.951Z,25.00
2019-02-20T12:29:49.841Z,25.00
2019-02-20T12:32:19.509Z,24.90
2019-02-20T12:34:49.475Z,25.10
2019-02-20T12:37:19.362Z,24.90
2019-02-20T12:39:49.153Z,24.80
2019-02-20T12:42:18.692Z,25.00
2019-02-20T12:44:48.358Z,25.00
2019-02-20T12:47:18.195Z,25.00
2019-02-20T12:49:47.933Z,25.00
2019-02-20T12:52:17.558Z,24.70
2019-02-20T12:54:47.269Z,24.50
2019-02-20T12:57:17.090Z,24.50
2019-02-20T12:59:46.867Z,24.40
2019-02-20T13:02:16.690Z,24.40
2019-02-20T13:04:46.440Z,24.30
2019-02-20T13:07:17.675Z,24.30
2019-02-20T13:09:47.511Z,24.30
2019-02-20T13:12:17.430Z,24.30
2019-02-20T13:14:47.266Z,24.40
2019-02-20T13:17:16.985Z,24.40
2019-02-20T13:19:46.676Z,24.30
2019-02-20T13:22:16.861Z,24.30
2019-02-20T13:24:47.278Z,24.30
2019-02-20T13:27:22.670Z,24.40
2019-02-20T13:29:48.614Z,24.40
2019-02-20T13:32:18.376Z,24.40
2019-02-20T13:34:48.132Z,24.50
2019-02-20T13:37:17.814Z,24.50
2019-02-20T13:39:47.634Z,24.50
2019-02-20T13:42:17.895Z,24.40
2019-02-20T13:44:47.625Z,24.40
2019-02-20T13:47:17.470Z,24.50
2019-02-20T13:49:47.155Z,24.50
2019-02-20T13:52:17.220Z,24.40
2019-02-20T13:54:46.993Z,24.40
2019-02-20T13:57:17.211Z,24.50
2019-02-20T13:59:46.976Z,24.50
2019-02-20T14:02:16.649Z,24.80
2019-02-20T14:04:46.420Z,26.70
2019-02-20T14:07:16.350Z,28.20
2019-02-20T14:09:46.069Z,28.60
2019-02-20T14:12:16.175Z,29.10
2019-02-20T14:14:47.546Z,29.60
2019-02-20T14:17:26.222Z,29.90
2019-02-20T14:19:48.611Z,30.10
2019-02-20T14:22:18.410Z,29.90
2019-02-20T14:24:49.218Z,30.10
2019-02-20T14:27:19.193Z,30.70
2019-02-20T14:29:48.773Z,31.30
2019-02-20T14:32:18.473Z,31.70
2019-02-20T14:34:48.111Z,31.70
2019-02-20T14:37:17.894Z,32.00
2019-02-20T14:39:47.569Z,32.20
2019-02-20T14:42:17.544Z,32.60
2019-02-20T14:44:47.302Z,32.80
2019-02-20T14:47:16.947Z,33.10
2019-02-20T14:49:46.952Z,33.40
2019-02-20T14:52:18.535Z,33.50
2019-02-20T14:54:47.847Z,33.80
2019-02-20T14:57:19.822Z,34.10
2019-02-20T14:59:49.430Z,34.40
2019-02-20T15:02:19.390Z,34.10
2019-02-20T15:04:49.175Z,34.40
2019-02-20T15:07:19.001Z,34.20
2019-02-20T15:09:49.044Z,34.50
2019-02-20T15:12:18.725Z,35.00
2019-02-20T15:14:48.495Z,35.10
2019-02-20T15:17:19.964Z,35.40
2019-02-20T15:19:49.786Z,35.60
2019-02-20T15:22:19.381Z,35.70
2019-02-20T15:24:49.082Z,35.90
2019-02-20T15:27:19.257Z,36.20
2019-02-20T15:29:50.200Z,36.30
2019-02-20T15:32:19.986Z,36.50
2019-02-20T15:34:49.679Z,36.60
2019-02-20T15:37:19.309Z,36.60
2019-02-20T15:39:49.375Z,36.60
2019-02-20T15:42:19.071Z,36.90
2019-02-20T15:44:48.963Z,37.20
2019-02-20T15:47:18.983Z,37.20
2019-02-20T15:49:48.746Z,37.20
2019-02-20T15:52:18.447Z,37.40
2019-02-20T15:54:48.154Z,37.50
2019-02-20T15:57:17.757Z,37.40
2019-02-20T15:59:47.449Z,37.40
2019-02-20T16:02:17.156Z,37.40
2019-02-20T16:04:47.073Z,37.40
2019-02-20T16:07:16.675Z,37.40
2019-02-20T16:09:46.776Z,37.20
2019-02-20T16:12:16.526Z,37.20
2019-02-20T16:14:46.154Z,37.40
2019-02-20T16:17:15.935Z,37.40
2019-02-20T16:19:45.639Z,37.40
2019-02-20T16:22:15.317Z,37.60
2019-02-20T16:24:45.102Z,37.60
2019-02-20T16:27:14.754Z,37.90
2019-02-20T16:29:44.527Z,37.60
2019-02-20T16:32:14.571Z,38.10
2019-02-20T16:34:44.318Z,38.10
2019-02-20T16:37:14.049Z,38.20
2019-02-20T16:39:43.755Z,38.50
2019-02-20T16:42:13.823Z,38.10
2019-02-20T16:44:43.452Z,37.10
2019-02-20T16:47:13.260Z,36.00
2019-02-20T16:49:43.029Z,35.40
2019-02-20T16:52:13.530Z,34.80
2019-02-20T16:54:43.320Z,34.40
2019-02-20T16:57:13.689Z,34.40
2019-02-20T16:59:43.363Z,34.40
2019-02-20T17:02:14.039Z,34.40
2019-02-20T17:04:43.742Z,34.40
2019-02-20T17:07:13.343Z,34.40
2019-02-20T17:09:43.491Z,34.40
2019-02-20T17:12:13.202Z,34.40
2019-02-20T17:14:43.335Z,34.20
2019-02-20T17:17:13.119Z,34.40
2019-02-20T17:19:42.866Z,34.40
2019-02-20T17:22:12.705Z,34.40
2019-02-20T17:24:42.867Z,34.20
2019-02-20T17:27:12.674Z,34.70
2019-02-20T17:29:42.441Z,34.70
2019-02-20T17:32:12.161Z,35.00
2019-02-20T17:34:42.252Z,35.70
2019-02-20T17:37:11.956Z,41.90
2019-02-20T17:39:41.978Z,39.70
2019-02-20T17:42:12.066Z,38.50
2019-02-20T17:44:42.226Z,37.40
2019-02-20T17:47:12.033Z,36.60
2019-02-20T17:49:41.708Z,36.20
2019-02-20T17:52:11.467Z,35.90
2019-02-20T17:54:41.405Z,35.60
2019-02-20T17:57:11.327Z,35.30
2019-02-20T17:59:41.052Z,35.00
2019-02-20T18:02:10.804Z,34.80
2019-02-20T18:04:40.535Z,34.70
2019-02-20T18:07:10.389Z,34.50
2019-02-20T18:09:40.173Z,43.10
2019-02-20T18:12:10.343Z,45.20
2019-02-20T18:14:40.035Z,46.10
2019-02-20T18:17:10.170Z,46.20
2019-02-20T18:19:40.288Z,45.90
2019-02-20T18:22:10.121Z,46.10
2019-02-20T18:24:39.813Z,45.50
2019-02-20T18:27:09.633Z,44.30
2019-02-20T18:29:39.407Z,43.90
2019-02-20T18:32:09.261Z,43.60
2019-02-20T18:34:38.945Z,43.00
2019-02-20T18:37:08.704Z,43.10
2019-02-20T18:39:38.615Z,42.70
2019-02-20T18:42:08.589Z,41.00
2019-02-20T18:44:38.384Z,39.90
2019-02-20T18:47:08.303Z,39.10
2019-02-20T18:49:41.384Z,38.40
2019-02-20T18:52:11.550Z,37.90
2019-02-20T18:54:41.629Z,37.50
2019-02-20T18:57:11.479Z,37.40
2019-02-20T18:59:44.012Z,37.20
2019-02-20T19:02:15.556Z,36.90
2019-02-20T19:04:46.215Z,36.90
2019-02-20T19:07:17.581Z,36.60
2019-02-20T19:09:47.373Z,36.50
2019-02-20T19:12:29.473Z,36.50
2019-02-20T19:15:20.877Z,36.30
2019-02-20T19:18:13.428Z,36.30
2019-02-20T19:20:58.135Z,36.20
2019-02-20T19:23:48.992Z,36.30
2019-02-20T19:26:24.264Z,36.50
2019-02-20T19:29:05.900Z,36.50
2019-02-20T19:31:47.499Z,36.30
2019-02-20T19:34:40.272Z,36.30
2019-02-20T19:37:30.223Z,36.30
2019-02-20T19:40:32.789Z,36.30
2019-02-20T19:43:31.323Z,36.30
2019-02-20T19:46:12.636Z,36.20
2019-02-20T19:48:51.326Z,36.30
2019-02-20T19:51:49.894Z,36.30
2019-02-20T19:54:31.485Z,36.30
2019-02-20T19:57:06.840Z,36.50
2019-02-20T19:59:44.677Z,36.50
2019-02-20T20:02:43.109Z,36.30
2019-02-20T20:05:49.369Z,38.50
2019-02-20T20:08:59.574Z,38.10
2019-02-20T20:11:48.930Z,37.50
2019-02-20T20:14:36.684Z,37.20
2019-02-20T20:17:18.629Z,37.10
2019-02-20T20:19:51.402Z,37.10
2019-02-20T20:22:33.078Z,36.90
2019-02-20T20:25:08.802Z,36.80
2019-02-20T20:27:44.795Z,36.80
2019-02-20T20:30:35.179Z,36.90
2019-02-20T20:33:27.597Z,36.50
2019-02-20T20:36:17.580Z,36.50
2019-02-20T20:39:08.468Z,36.50
2019-02-20T20:41:59.278Z,36.50
2019-02-20T20:44:40.550Z,36.60
2019-02-20T20:47:19.511Z,36.50
2019-02-20T20:50:03.993Z,36.30
2019-02-20T20:52:49.100Z,36.30
2019-02-20T20:55:21.818Z,36.30
2019-02-20T20:58:28.351Z,36.20
2019-02-20T21:01:29.204Z,36.50
2019-02-20T21:04:04.735Z,36.30
2019-02-20T21:06:55.566Z,36.60
2019-02-20T21:13:02.020Z,36.50
2019-02-20T21:15:37.497Z,36.50
2019-02-20T21:18:32.860Z,36.50
2019-02-20T21:21:05.687Z,36.30
2019-02-20T21:23:41.289Z,36.30
2019-02-20T21:26:19.965Z,36.30
2019-02-20T21:29:01.795Z,36.20
2019-02-20T21:31:54.301Z,36.00
2019-02-20T21:34:39.743Z,36.00
2019-02-20T21:37:39.123Z,36.20
2019-02-20T21:40:37.212Z,36.20
2019-02-20T21:43:18.334Z,36.20
2019-02-20T21:45:59.880Z,36.20
2019-02-20T21:48:50.340Z,36.20
2019-02-20T21:51:42.602Z,36.30
2019-02-20T21:54:36.229Z,36.30
2019-02-20T21:57:09.094Z,36.30
2019-02-20T22:00:16.045Z,36.30
2019-02-20T22:02:58.042Z,36.30
2019-02-20T22:05:30.766Z,36.20
2019-02-20T22:08:18.124Z,36.20
2019-02-20T22:11:24.426Z,36.00
2019-02-20T22:14:19.625Z,36.00
2019-02-20T22:16:55.025Z,36.00
2019-02-20T22:23:04.434Z,36.20
2019-02-20T22:25:52.069Z,36.20
2019-02-20T22:28:38.150Z,36.20
2019-02-20T22:31:13.681Z,36.20
2019-02-20T22:34:01.716Z,36.20
2019-02-20T22:36:40.183Z,36.30
2019-02-20T22:39:15.808Z,36.30
2019-02-20T22:41:54.369Z,36.30
2019-02-20T22:44:43.439Z,36.30
2019-02-20T22:47:18.830Z,36.30
2019-02-20T22:49:56.519Z,36.30
2019-02-20T22:52:31.795Z,36.30
2019-02-20T22:55:30.097Z,36.50
2019-02-20T22:58:22.184Z,36.50
2019-02-20T23:01:10.796Z,36.50
2019-02-20T23:04:02.823Z,36.50
2019-02-20T23:06:55.425Z,36.60
2019-02-20T23:09:45.970Z,36.60
2019-02-20T23:12:21.631Z,36.60
2019-02-20T23:15:00.700Z,36.60
2019-02-20T23:17:30.424Z,36.60
2019-02-20T23:20:00.370Z,36.60
2019-02-20T23:22:30.112Z,36.50
2019-02-20T23:24:59.672Z,36.50
2019-02-20T23:27:29.396Z,36.30
2019-02-20T23:30:18.451Z,36.30
2019-02-20T23:32:48.064Z,36.20
2019-02-20T23:35:17.767Z,36.20
2019-02-20T23:37:47.423Z,36.20
2019-02-20T23:40:17.101Z,36.20
2019-02-20T23:42:48.990Z,36.20
2019-02-20T23:45:18.407Z,36.20
2019-02-20T23:47:48.123Z,36.20
2019-02-20T23:50:17.884Z,36.20
2019-02-20T23:52:47.517Z,36.20
2019-02-20T23:55:17.295Z,35.90
2019-02-20T23:57:47.066Z,35.90
